Latest Coastal Weather Observations for Dennes Point

IDT60701

Issued at 5:52 am EST Wednesday 27 July 2016 (issued every 10 minutes, with the page automatically refreshed every 10 minutes)

About coastal observations | Map of coastal stations | Coastal observations for TAS | Marine services | Other Formats
Station Details ID: 094255 Name: DENNES POINT Lat: -43.06 Lon: 147.36 Height: 5.67 m
Data from the previous 72 hours. | See also: Recent months at Dennes Point
Date/Time
EST
Temp
°C
Wind Pressure Rain since
9am
mm
Weather Cloud Vis
km
Sea
Height
m
Swell
Dir  Spd
kts
Gust
kts
hPa Trend Height
m
Period
s
Dir
27/05:30am 4.9 WSW 16 19 999.5 - 0.8 - - - - - - -
27/05:15am 6.0 SW 15 27 999.6 - 0.8 - - - - - - -
27/05:00am 5.8 SW 9 15 999.2 - 0.8 - - - - - - -
27/04:30am 5.6 SW 11 16 998.5 - 0.8 - - - - - - -
27/04:00am 5.9 SW 8 12 997.9 - 0.8 - - - - - - -
27/03:30am 5.5 SSW 8 11 997.1 - 0.6 - - - - - - -
27/03:00am 6.1 WSW 16 21 996.4 - 0.6 Rain - - - - - -
27/02:30am 7.3 WSW 18 24 995.5 - 0.4 - - - - - - -
27/02:00am 8.3 W 13 19 994.5 - 0.2 - - - - - - -
27/01:30am 8.9 NNW 4 9 993.3 - 0.2 - - - - - - -
27/01:00am 8.9 W 7 22 992.9 - 0.2 - - - - - - -
27/12:30am 9.5 N 7 16 993.1 - 0.2 - - - - - - -
27/12:00am 9.3 NNW 5 11 993.1 - 0.2 - - - - - - -
 
Date/Time
EST
Temp
°C
Wind Pressure Rain since
9am
mm
Weather Cloud Vis
km
Sea
Height
m
Swell
Dir  Spd
kts
Gust
kts
hPa Trend Height
m
Period
s
Dir
26/11:31pm 9.0 NNE 15 26 993.3 - 0.2 - - - - - - -
26/11:30pm 9.0 NNE 15 20 993.3 - 0.2 - - - - - - -
26/11:00pm 8.5 NNE 14 20 994.2 - 0.2 - - - - - - -
26/10:30pm 8.2 N 10 17 994.7 - 0.2 - - - - - - -
26/10:00pm 7.7 NW 9 16 995.3 - 0.2 - - - - - - -
26/09:30pm 8.2 N 9 15 996.0 - 0.2 - - - - - - -
26/09:00pm 7.5 NW 8 13 996.6 - 0.2 - - - - - - -
26/08:30pm 7.4 NNW 8 13 997.2 - 0.2 - - - - - - -
26/08:00pm 7.2 NW 9 14 997.7 - 0.2 - - - - - - -
26/07:30pm 7.4 NNW 9 10 998.0 - 0.2 - - - - - - -
26/07:00pm 7.3 N 3 4 998.5 - 0.2 - - - - - - -
26/06:30pm 7.3 NW 5 7 998.8 - 0.2 - - - - - - -
26/06:00pm 7.3 NW 10 13 999.0 - 0.2 - - - - - - -
26/05:30pm 7.2 NW 11 14 999.0 - 0.2 - - - - - - -
26/05:00pm 7.2 WNW 5 11 999.2 - 0.2 - - - - - - -
26/04:30pm 7.2 WSW 6 9 999.4 - 0.2 - - - - - - -
26/04:00pm 8.1 WNW 7 10 999.1 - 0.2 - - - - - - -
26/03:30pm 8.6 WNW 13 20 998.7 - 0.2 - - - - - - -
26/03:00pm 8.9 W 8 13 998.3 - 0.2 - - - - - - -
26/02:30pm 8.5 WSW 3 7 998.3 - 0.2 - - - - - - -
26/02:00pm 8.5 SE 4 9 998.1 - 0.2 - - - - - - -
26/01:30pm 8.0 W 4 7 997.8 - 0.2 - - - - - - -
26/01:00pm 8.0 W 10 19 997.7 - 0.2 - - - - - - -
26/12:51pm 8.1 W 16 26 997.6 - 0.2 - - - - - - -
26/12:30pm 8.7 W 18 25 997.4 - 0.2 - - - - - - -
26/12:00pm 8.3 W 21 30 997.0 - 0.2 - - - - - - -
26/11:35am 8.4 W 20 31 997.0 - 0.2 - - - - - - -
26/11:30am 8.3 W 23 31 997.1 - 0.2 - - - - - - -
26/11:02am 8.5 W 18 28 997.3 - 0.2 - - - - - - -
26/11:00am 8.6 W 18 25 997.3 - 0.2 - - - - - - -
26/10:30am 7.8 W 19 25 997.0 - 0.2 - - - - - - -
26/10:00am 6.5 WNW 17 22 997.2 - 0.2 - - - - - - -
26/09:30am 6.3 WNW 18 24 997.1 - 0.2 - - - - - - -
26/09:00am 6.0 NW 11 15 996.5 - 5.2 Recent precip. - - - - - -
26/08:30am 5.1 WNW 12 18 996.5 - 5.0 - - - - - - -
26/08:00am 5.9 W 14 24 995.9 - 4.8 - - - - - - -
26/07:30am 6.1 WNW 18 24 995.1 - 4.8 - - - - - - -
26/07:00am 5.4 WNW 11 20 994.1 - 4.8 - - - - - - -
26/06:31am 5.2 WNW 15 26 993.4 - 4.6 - - - - - - -
26/06:30am 5.2 WNW 14 23 993.2 - 4.6 - - - - - - -
26/06:00am 5.2 NW 15 21 993.4 - 4.2 Rain - - - - - -
26/05:40am 5.7 W 15 25 993.4 - 3.8 - - - - - - -
26/05:30am 5.2 W 16 30 992.6 - 3.6 - - - - - - -
26/05:15am 5.8 WNW 20 40 992.5 - 3.4 - - - - - - -
26/05:13am 5.7 WNW 16 30 992.5 - 3.4 - - - - - - -
26/05:00am 5.7 NW 12 18 991.4 - 3.4 - - - - - - -
26/04:30am 6.0 W 16 22 991.9 - 3.0 - - - - - - -
26/04:00am 6.2 NW 11 16 991.1 - 2.8 - - - - - - -
26/03:30am 5.8 NW 15 21 990.5 - 2.6 - - - - - - -
26/03:00am 5.8 NW 12 19 990.0 - 2.4 Recent precip. - - - - - -
26/02:35am 5.6 NW 20 31 990.1 - 2.2 - - - - - - -
26/02:30am 5.8 WNW 25 39 989.9 - 2.0 - - - - - - -
26/02:27am 5.8 WNW 27 39 989.8 - 2.0 - - - - - - -
26/02:08am 5.8 W 29 43 989.7 - 1.6 - - - - - - -
26/02:06am 5.8 WNW 28 39 989.7 - 1.6 - - - - - - -
26/02:00am 6.0 WNW 21 33 989.3 - 1.4 - - - - - - -
26/01:57am 6.1 WNW 19 33 989.2 - 1.4 - - - - - - -
26/01:30am 6.2 WNW 19 26 989.3 - 1.2 - - - - - - -
26/01:04am 5.4 WNW 26 37 988.6 - 1.0 - - - - - - -
26/01:00am 5.6 W 29 37 989.1 - 0.4 - - - - - - -
26/12:49am 6.1 W 23 37 988.8 - 0.0 - - - - - - -
26/12:45am 6.0 W 16 33 989.0 - 0.0 - - - - - - -
26/12:30am 6.2 WNW 11 15 988.5 - 0.0 - - - - - - -
26/12:00am 6.4 NW 7 17 988.1 - 0.0 - - - - - - -
 
Date/Time
EST
Temp
°C
Wind Pressure Rain since
9am
mm
Weather Cloud Vis
km
Sea
Height
m
Swell
Dir  Spd
kts
Gust
kts
hPa Trend Height
m
Period
s
Dir
25/11:30pm 6.8 NW 10 17 988.5 - 0.0 - - - - - - -
25/11:00pm 7.8 WNW 14 19 988.3 - 0.0 - - - - - - -
25/10:30pm 7.9 W 11 17 986.9 - 0.0 - - - - - - -
25/10:00pm 8.6 W 13 17 987.1 - 0.0 - - - - - - -
25/09:30pm 9.4 WNW 14 21 986.4 - 0.0 - - - - - - -
25/09:00pm 9.9 N 15 22 985.5 - 0.0 - - - - - - -
25/08:30pm 9.7 NNE 13 20 985.7 - 0.0 - - - - - - -
25/08:00pm 10.0 NE 9 12 986.6 - 0.0 - - - - - - -
25/07:30pm 10.0 NNE 12 15 987.3 - 0.0 - - - - - - -
25/07:00pm 10.2 NNE 20 24 987.7 - 0.0 - - - - - - -
25/06:50pm 10.3 NNE 14 22 988.1 - 0.0 - - - - - - -
25/06:30pm 10.0 NE 10 12 988.9 - 0.0 - - - - - - -
25/06:00pm 10.3 NE 11 13 989.6 - 0.0 - - - - - - -
25/05:30pm 10.6 NNE 12 14 990.4 - 0.0 - - - - - - -
25/05:00pm 11.0 N 8 10 991.2 - 0.0 - - - - - - -
25/04:30pm 10.9 NNE 7 10 991.8 - 0.0 - - - - - - -
25/04:00pm 11.5 N 5 7 992.6 - 0.0 - - - - - - -
25/03:30pm 11.9 NW 7 9 993.1 - 0.0 - - - - - - -
25/03:00pm 11.8 NNE 2 5 993.8 - 0.0 - - - - - - -
25/02:30pm 12.5 WNW 5 8 994.0 - 0.0 - - - - - - -
25/02:00pm 11.7 W 6 9 994.6 - 0.0 - - - - - - -
25/01:30pm 11.4 W 6 11 995.1 - 0.0 - - - - - - -
25/01:00pm 10.6 NNW 7 8 995.6 - 0.0 - - - - - - -
25/12:30pm 10.1 N 6 8 996.2 - 0.0 - - - - - - -
25/12:00pm 9.4 NNW 8 11 996.8 - 0.0 - - - - - - -
25/11:30am 9.3 N 8 10 997.3 - 0.0 - - - - - - -
25/11:00am 9.3 N 9 11 997.7 - 0.0 - - - - - - -
25/10:30am 8.7 NNE 10 12 997.9 - 0.0 - - - - - - -
25/10:00am 7.7 N 12 13 997.8 - 0.0 - - - - - - -
25/09:30am 7.9 N 9 11 998.2 - 0.0 - - - - - - -
25/09:00am 7.8 N 11 13 998.1 - 0.0 - - - - - - -
25/08:30am 7.6 N 6 8 998.3 - 0.0 - - - - - - -
25/08:00am 6.6 NNE 7 10 998.4 - 0.0 - - - - - - -
25/07:30am 7.3 NNE 10 12 998.2 - 0.0 - - - - - - -
25/07:00am 6.7 NW 1 2 998.2 - 0.0 - - - - - - -
25/06:30am 7.5 NNE 8 10 998.5 - 0.0 - - - - - - -
25/06:00am 6.4 CALM 0 3 998.5 - 0.0 - - - - - - -
25/05:30am 6.5 N 3 5 998.6 - 0.0 - - - - - - -
25/05:00am 6.5 NNE 4 5 998.7 - 0.0 - - - - - - -
25/04:30am 6.6 SW 3 7 998.7 - 0.0 - - - - - - -
25/04:00am 7.0 NNE 5 7 998.5 - 0.0 - - - - - - -
25/03:30am 5.4 SW 3 4 998.9 - 0.0 - - - - - - -
25/03:00am 6.7 N 5 7 999.0 - 0.0 - - - - - - -
25/02:30am 6.3 NE 2 3 999.4 - 0.0 - - - - - - -
25/02:00am 6.2 NE 3 4 999.4 - 0.0 - - - - - - -
25/01:30am 6.1 N 4 5 999.7 - 0.0 - - - - - - -
25/01:00am 6.3 NNE 5 6 999.9 - 0.0 - - - - - - -
25/12:30am 6.0 N 2 3 1000.0 - 0.0 - - - - - - -
25/12:00am 5.4 CALM 0 1 1000.4 - 0.0 - - - - - - -
 
Date/Time
EST
Temp
°C
Wind Pressure Rain since
9am
mm
Weather Cloud Vis
km
Sea
Height
m
Swell
Dir  Spd
kts
Gust
kts
hPa Trend Height
m
Period
s
Dir
24/11:30pm 6.6 NNE 7 9 1000.5 - 0.0 - - - - - - -
24/11:00pm 6.5 N 3 5 1000.8 - 0.0 - - - - - - -
24/10:30pm 6.4 NNE 4 7 1001.0 - 0.0 - - - - - - -
24/10:00pm 4.3 SW 2 4 1001.2 - 0.0 - - - - - - -
24/09:30pm 4.3 SSW 2 5 1001.4 - 0.0 - - - - - - -
24/09:00pm 4.4 SSW 6 6 1001.7 - 0.0 - - - - - - -
24/08:30pm 5.0 SSW 5 7 1001.8 - 0.0 - - - - - - -
24/08:00pm 4.9 S 6 7 1002.0 - 0.0 - - - - - - -
24/07:30pm 5.2 SSW 7 9 1002.1 - 0.0 - - - - - - -
24/07:00pm 6.1 SSW 4 5 1002.3 - 0.0 - - - - - - -
24/06:30pm 5.9 S 3 5 1002.4 - 0.0 - - - - - - -
24/06:00pm 6.4 SW 4 5 1002.3 - 0.0 - - - - - - -
24/05:30pm 8.6 NNE 4 4 1002.3 - 0.0 - - - - - - -
24/05:00pm 8.6 N 3 5 1002.2 - 0.0 - - - - - - -
24/04:30pm 8.9 NW 3 4 1002.3 - 0.0 - - - - - - -
24/04:00pm 9.3 NNW 2 5 1002.5 - 0.0 - - - - - - -
24/03:30pm 9.3 N 5 8 1002.6 - 0.0 - - - - - - -
24/03:00pm 9.2 WNW 6 9 1002.6 - 0.0 - - - - - - -
24/02:30pm 9.6 W 6 9 1002.6 - 0.0 - - - - - - -
24/02:00pm 8.8 N 4 6 1002.7 - 0.0 - - - - - - -
24/01:30pm 8.9 NNE 5 6 1003.0 - 0.0 - - - - - - -
24/01:00pm 8.5 N 6 8 1003.5 - 0.0 - - - - - - -
24/12:30pm 8.7 NNE 6 7 1003.9 - 0.0 - - - - - - -
24/12:00pm 8.2 N 4 7 1004.2 - 0.0 - - - - - - -
24/11:30am 8.3 NNW 6 9 1004.5 - 0.0 - - - - - - -
24/11:00am 7.6 N 6 7 1004.6 - 0.0 - - - - - - -
24/10:30am 7.7 NNW 3 5 1004.7 - 0.0 - - - - - - -
24/10:00am 7.0 NNW 6 8 1004.8 - 0.0 - - - - - - -
24/09:30am 7.1 NNW 6 8 1004.9 - 0.0 - - - - - - -
24/09:00am 5.2 SW 5 6 1004.7 - 4.8 - - - - - - -
24/08:30am 4.2 SW 2 3 1004.9 - 4.8 - - - - - - -
24/08:00am 3.7 SSW 4 6 1004.8 - 4.8 - - - - - - -
24/07:30am 5.5 NNW 5 6 1004.6 - 4.8 - - - - - - -
24/07:00am 5.8 NNW 5 7 1004.5 - 4.8 - - - - - - -
24/06:30am 5.9 NNW 6 9 1003.9 - 4.8 - - - - - - -
24/06:00am 5.6 NW 6 10 1003.8 - 4.8 - - - - - - -

Other Formats:

Comma delimited format used in spreadsheet applications
http://www.bom.gov.au/fwo/IDT60701/IDT60701.94988.axf

JavaScript Object Notation format (JSON) in row-major order
http://www.bom.gov.au/fwo/IDT60701/IDT60701.94988.json